Terminal Aerodrome Forecast
Issued by NWS

Home | Current Version | Previous Version | Text Only | Print | Product List | Glossary On
Versions: 1 2 3 4 5 6 7 8 9 10 11 12
000
FTUS45 KRIW 280500
TAFLND
TAF
KLND 280532Z 2806/2906 VRB05KT P6SM SCT080
     FM281000 VRB05KT P6SM SCT050 BKN080
     FM281500 VRB06KT P6SM VCSH SCT030 BKN050 PROB30 2816/2820 4SM
      -SNRA BKN030
     FM282200 29006KT P6SM SCT040 BKN060
     FM290500 VRB05KT P6SM SCT060=

USA.gov is the U.S. government's official web portal to all federal, state and local government web resources and services.